Time;durP1;ratioP1;P1;durP2;ratioP2;P2;SDS_P1;SDS_P2;PMS_P1;PMS_P2;Temp;Humidity;BMP_temperature;BMP_pressure;BME280_temperature;BME280_humidity;BME280_pressure;Samples;Min_cycle;Max_cycle;Signal;HPM_P1;HPM_P2
2021/05/30 00:01:30;;;;;;;0.30;0.30;;;;;;;11.19;73.74;102985.72;4985103;28;20038;-72
2021/05/30 00:03:55;;;;;;;0.30;0.30;;;;;;;11.19;73.31;102992.69;4984013;28;20476;-72
2021/05/30 00:06:21;;;;;;;0.40;0.40;;;;;;;11.05;72.97;102972.44;4982562;28;20065;-72
2021/05/30 00:08:47;;;;;;;0.20;0.20;;;;;;;11.02;74.01;102964.78;4966872;28;20400;-72
2021/05/30 00:11:14;;;;;;;0.20;0.20;;;;;;;11.17;74.06;102982.31;4984351;28;20030;-72
2021/05/30 00:13:39;;;;;;;0.20;0.20;;;;;;;11.13;73.52;102985.13;4985090;28;20049;-72
2021/05/30 00:16:06;;;;;;;0.32;0.32;;;;;;;11.21;72.63;102996.06;4982132;28;20034;-72
2021/05/30 00:18:31;;;;;;;0.40;0.30;;;;;;;11.07;72.83;102985.41;4981795;28;20381;-72
2021/05/30 00:20:57;;;;;;;0.40;0.40;;;;;;;11.01;73.52;102975.28;4983255;28;20042;-72
2021/05/30 00:23:22;;;;;;;0.30;0.30;;;;;;;10.89;72.69;102976.66;4981328;28;20062;-73
2021/05/30 00:25:48;;;;;;;0.30;0.30;;;;;;;10.92;73.05;102978.28;4983645;28;20045;-72
2021/05/30 00:28:13;;;;;;;0.30;0.30;;;;;;;10.93;74.05;102983.41;4966000;28;20858;-72
2021/05/30 00:30:39;;;;;;;0.30;0.30;;;;;;;10.84;74.31;102979.47;4982903;28;20034;-72
2021/05/30 00:33:04;;;;;;;0.30;0.30;;;;;;;10.83;73.39;102977.78;4983201;28;20038;-72
2021/05/30 00:35:30;;;;;;;0.30;0.30;;;;;;;10.69;73.04;102989.75;4982729;28;20049;-72
2021/05/30 00:37:56;;;;;;;0.30;0.30;;;;;;;10.73;73.06;102988.69;4983135;28;20088;-72
2021/05/30 00:40:22;;;;;;;0.32;0.32;;;;;;;10.77;73.69;102998.94;4987923;28;20614;-72
2021/05/30 00:42:48;;;;;;;0.30;0.30;;;;;;;10.84;73.42;102996.88;4984141;28;20038;-72
2021/05/30 00:45:14;;;;;;;0.32;0.32;;;;;;;10.68;73.99;102985.44;4980764;28;20069;-72
2021/05/30 00:47:40;;;;;;;0.50;0.40;;;;;;;10.67;73.72;102979.38;4951384;28;20125;-72
2021/05/30 00:50:07;;;;;;;0.30;0.30;;;;;;;10.58;73.25;102991.03;4984118;28;20037;-72
2021/05/30 00:52:33;;;;;;;0.20;0.20;;;;;;;10.66;73.21;102998.53;4982563;28;20113;-72
2021/05/30 00:55:01;;;;;;;0.30;0.30;;;;;;;10.68;75.00;102999.31;5007613;28;20072;-71
2021/05/30 00:57:26;;;;;;;0.30;0.30;;;;;;;10.55;74.40;102983.38;4982574;28;20034;-72
2021/05/30 00:59:52;;;;;;;0.40;0.40;;;;;;;10.55;73.02;102985.97;4965925;28;20089;-72
2021/05/30 01:02:17;;;;;;;0.30;0.30;;;;;;;10.44;73.60;102974.34;4966449;28;20140;-72
2021/05/30 01:04:43;;;;;;;0.38;0.38;;;;;;;10.36;73.67;102974.66;4982166;28;20688;-73
2021/05/30 01:07:09;;;;;;;0.30;0.30;;;;;;;10.39;74.49;102990.13;4980929;28;20062;-73
2021/05/30 01:09:34;;;;;;;0.50;0.30;;;;;;;10.31;74.93;102975.75;4981994;28;20076;-72
2021/05/30 01:12:02;;;;;;;0.30;0.30;;;;;;;10.47;75.69;102998.50;4966033;28;20038;-72
2021/05/30 01:14:28;;;;;;;0.30;0.30;;;;;;;10.42;74.26;102992.63;4982246;28;20046;-72
2021/05/30 01:16:55;;;;;;;0.40;0.40;;;;;;;10.46;74.67;103003.78;4983046;28;20667;-72
2021/05/30 01:19:26;;;;;;;0.32;0.30;;;;;;;10.53;74.59;102994.75;4981139;28;20420;-72
2021/05/30 01:21:54;;;;;;;0.30;0.30;;;;;;;10.44;74.41;102980.41;4981954;28;20117;-72
2021/05/30 01:24:19;;;;;;;0.30;0.30;;;;;;;10.45;74.06;102987.28;4979381;28;20059;-73
2021/05/30 01:26:45;;;;;;;0.32;0.32;;;;;;;10.35;74.46;102967.75;4982743;28;20038;-73
2021/05/30 01:29:10;;;;;;;0.30;0.30;;;;;;;10.48;74.99;103000.19;4979853;28;20492;-73
2021/05/30 01:31:36;;;;;;;0.30;0.30;;;;;;;10.26;74.79;102968.16;4951676;28;20049;-73
2021/05/30 01:34:05;;;;;;;0.30;0.30;;;;;;;10.40;75.08;102983.16;4981945;28;20026;-73
2021/05/30 01:36:31;;;;;;;0.40;0.30;;;;;;;10.36;74.87;102972.03;4979328;28;20042;-74
2021/05/30 01:38:57;;;;;;;0.40;0.40;;;;;;;10.24;74.97;102964.78;4983754;28;20129;-73
2021/05/30 01:41:22;;;;;;;0.30;0.30;;;;;;;10.21;74.43;102973.53;4966612;28;20572;-73
2021/05/30 01:43:48;;;;;;;0.50;0.30;;;;;;;10.20;74.55;102982.22;4982586;28;20497;-74
2021/05/30 01:46:13;;;;;;;0.60;0.40;;;;;;;10.18;74.67;102991.88;4998289;28;20038;-74
2021/05/30 01:48:39;;;;;;;0.30;0.30;;;;;;;10.15;75.15;102988.53;4983699;28;20073;-73
2021/05/30 01:51:07;;;;;;;0.50;0.50;;;;;;;9.98;75.38;102984.88;4983663;28;20325;-72
2021/05/30 01:53:46;;;;;;;0.40;0.40;;;;;;;10.05;74.49;102993.28;5001227;28;20037;-74
2021/05/30 01:58:42;;;;;;;0.40;0.30;;;;;;;10.06;74.95;102988.94;4982959;28;20038;-74
2021/05/30 02:01:11;;;;;;;0.32;0.32;;;;;;;10.15;75.03;103004.16;4967023;28;20042;-73
2021/05/30 02:03:37;;;;;;;0.47;0.40;;;;;;;9.99;75.01;102975.31;4985748;28;20533;-74
2021/05/30 02:06:04;;;;;;;0.38;0.38;;;;;;;10.09;74.57;103002.69;5001851;28;20037;-73
2021/05/30 02:08:30;;;;;;;0.30;0.30;;;;;;;9.88;74.92;102969.72;4987247;28;20042;-73
2021/05/30 02:10:57;;;;;;;0.40;0.30;;;;;;;9.98;76.00;103000.50;4971175;28;20048;-73
2021/05/30 02:13:25;;;;;;;0.30;0.30;;;;;;;9.65;75.50;102936.81;4979519;28;20045;-73
2021/05/30 02:15:51;;;;;;;0.30;0.30;;;;;;;10.05;76.58;102997.63;4986454;28;20121;-73
2021/05/30 02:18:17;;;;;;;0.50;0.38;;;;;;;10.04;75.83;103001.16;4984980;28;20420;-74
2021/05/30 02:20:42;;;;;;;0.30;0.30;;;;;;;10.07;76.19;103001.91;4984617;28;20046;-73
2021/05/30 02:23:12;;;;;;;0.40;0.30;;;;;;;10.02;75.74;102993.41;4984069;28;20038;-74
2021/05/30 02:25:38;;;;;;;0.40;0.40;;;;;;;10.11;75.85;102995.66;4984353;28;20379;-74
2021/05/30 02:28:05;;;;;;;0.40;0.32;;;;;;;10.09;76.35;102987.06;4985942;28;20527;-74
2021/05/30 02:30:31;;;;;;;0.77;0.40;;;;;;;10.07;76.03;102985.44;4983733;28;20133;-74
2021/05/30 02:32:56;;;;;;;0.30;0.30;;;;;;;10.00;76.54;102977.84;4983908;28;20096;-73
2021/05/30 02:35:22;;;;;;;0.30;0.30;;;;;;;9.88;75.72;102967.97;4967863;28;20448;-73
2021/05/30 02:37:48;;;;;;;0.70;0.30;;;;;;;9.95;75.12;102990.22;4968469;28;20057;-73
2021/05/30 02:40:14;;;;;;;0.32;0.32;;;;;;;9.82;75.18;102975.16;4984226;28;20084;-74
2021/05/30 02:42:40;;;;;;;0.40;0.40;;;;;;;9.86;75.20;102993.19;4984246;28;20471;-73
2021/05/30 02:45:07;;;;;;;0.20;0.20;;;;;;;9.83;74.92;102985.50;4985098;28;20044;-73
2021/05/30 02:47:33;;;;;;;0.20;0.20;;;;;;;9.84;75.29;103000.19;4981541;28;20088;-74
2021/05/30 02:50:04;;;;;;;0.30;0.30;;;;;;;9.81;76.47;102991.69;4969434;28;20061;-74
2021/05/30 02:52:29;;;;;;;0.25;0.25;;;;;;;9.80;76.40;102990.84;4982338;28;20042;-73
2021/05/30 02:54:55;;;;;;;0.35;0.35;;;;;;;9.75;76.79;102995.38;4985553;28;20045;-73
2021/05/30 02:57:22;;;;;;;0.50;0.40;;;;;;;9.74;76.65;102990.25;4984858;28;20104;-73
2021/05/30 02:59:47;;;;;;;0.50;0.40;;;;;;;9.61;75.84;102976.88;4984742;28;20062;-74
2021/05/30 03:02:16;;;;;;;0.38;0.38;;;;;;;9.83;75.52;103011.53;4990743;28;20047;-74
2021/05/30 03:04:42;;;;;;;0.32;0.32;;;;;;;9.78;76.40;103007.41;4983330;28;20038;-74
2021/05/30 03:07:07;;;;;;;0.30;0.30;;;;;;;9.77;76.78;102996.16;4996995;28;20464;-74
2021/05/30 03:09:33;;;;;;;0.20;0.20;;;;;;;9.59;76.11;102986.47;4967153;28;20443;-74
2021/05/30 03:11:58;;;;;;;0.30;0.30;;;;;;;9.63;75.75;103009.72;4983120;28;20045;-74
2021/05/30 03:14:24;;;;;;;0.40;0.40;;;;;;;9.50;76.33;103010.25;4984247;28;20152;-74
2021/05/30 03:16:50;;;;;;;0.30;0.30;;;;;;;9.49;76.12;103012.00;4984534;28;20046;-74
2021/05/30 03:19:16;;;;;;;0.50;0.40;;;;;;;9.45;76.33;103007.81;4987567;28;20129;-74
2021/05/30 03:21:41;;;;;;;0.40;0.40;;;;;;;9.35;76.87;103006.50;4984330;28;20045;-74
2021/05/30 03:24:08;;;;;;;0.52;0.35;;;;;;;9.38;76.77;103019.38;4986141;28;20382;-74
2021/05/30 03:26:36;;;;;;;0.30;0.30;;;;;;;9.31;77.02;103020.50;4983653;28;20392;-74
2021/05/30 03:29:02;;;;;;;0.32;0.32;;;;;;;9.41;76.87;103026.22;4984353;28;20038;-74
2021/05/30 03:31:27;;;;;;;0.28;0.28;;;;;;;9.22;77.74;102984.47;4984245;28;20763;-74
2021/05/30 03:33:53;;;;;;;0.38;0.30;;;;;;;9.32;76.85;102991.84;4985361;28;20046;-74
2021/05/30 03:36:22;;;;;;;0.30;0.30;;;;;;;9.22;76.40;102980.09;4966758;28;20065;-73
2021/05/30 03:38:48;;;;;;;0.30;0.30;;;;;;;9.36;77.87;103006.44;4984327;28;20093;-74
2021/05/30 03:41:16;;;;;;;0.30;0.30;;;;;;;9.33;78.03;103016.09;4983946;28;20049;-74
2021/05/30 03:43:42;;;;;;;0.38;0.30;;;;;;;9.26;77.65;103020.69;4982275;28;20465;-73
2021/05/30 03:46:07;;;;;;;0.30;0.30;;;;;;;9.24;78.82;103021.63;4967846;28;20132;-74
2021/05/30 03:48:33;;;;;;;0.20;0.20;;;;;;;9.15;78.32;103019.38;4983384;28;20042;-74
2021/05/30 03:50:59;;;;;;;0.80;0.40;;;;;;;9.02;78.93;102996.44;4993464;28;20038;-74
2021/05/30 03:53:25;;;;;;;0.60;0.50;;;;;;;9.03;78.34;103015.50;4985614;28;20126;-74
2021/05/30 03:55:51;;;;;;;0.65;0.30;;;;;;;8.93;78.78;102995.91;4988545;28;20113;-73
2021/05/30 03:58:17;;;;;;;0.40;0.32;;;;;;;8.93;79.26;103014.97;4971234;28;20034;-74
2021/05/30 04:00:43;;;;;;;0.30;0.30;;;;;;;8.93;79.22;103017.56;4983885;28;20471;-74
2021/05/30 04:03:10;;;;;;;0.32;0.30;;;;;;;8.92;79.19;103018.47;4985908;28;20100;-74
2021/05/30 04:05:36;;;;;;;0.22;0.20;;;;;;;8.69;79.60;102993.31;4984494;28;20045;-74
2021/05/30 04:08:02;;;;;;;0.30;0.30;;;;;;;8.71;79.75;102983.72;4986482;28;20046;-74
2021/05/30 04:10:28;;;;;;;0.22;0.20;;;;;;;8.84;79.36;103014.47;4983619;28;20199;-74
2021/05/30 04:12:54;;;;;;;0.32;0.32;;;;;;;8.73;79.42;102989.69;4984185;28;20131;-74
2021/05/30 04:15:19;;;;;;;0.50;0.30;;;;;;;8.89;79.83;103017.72;4982764;28;20503;-74
2021/05/30 04:17:45;;;;;;;0.75;0.30;;;;;;;8.82;79.82;103006.72;4981143;28;20034;-74
2021/05/30 04:20:15;;;;;;;0.30;0.30;;;;;;;8.89;79.57;103015.97;4983898;28;20057;-74
2021/05/30 04:22:41;;;;;;;0.30;0.30;;;;;;;8.81;79.93;103005.03;4995340;28;20393;-74
2021/05/30 04:25:09;;;;;;;0.30;0.30;;;;;;;8.91;79.95;103026.31;4983459;28;20050;-74
2021/05/30 04:27:37;;;;;;;0.45;0.35;;;;;;;8.92;80.03;103022.81;4984417;28;20030;-74
2021/05/30 04:30:08;;;;;;;0.52;0.40;;;;;;;8.93;79.67;103027.09;4983273;28;20158;-74
2021/05/30 04:32:34;;;;;;;0.30;0.30;;;;;;;8.90;80.20;103015.06;4999776;28;20101;-75
2021/05/30 04:35:00;;;;;;;0.45;0.30;;;;;;;8.90;80.28;103025.47;4982995;28;20034;-72
2021/05/30 04:37:25;;;;;;;0.30;0.30;;;;;;;8.93;80.35;103021.91;4984783;28;20040;-71
2021/05/30 04:39:51;;;;;;;0.30;0.30;;;;;;;8.93;79.99;103033.16;4983930;28;20034;-72
2021/05/30 04:42:16;;;;;;;0.38;0.38;;;;;;;8.85;80.01;103009.19;4983838;28;20469;-72
2021/05/30 04:44:42;;;;;;;0.40;0.40;;;;;;;8.96;80.23;103030.44;4949140;28;20066;-72
2021/05/30 04:47:07;;;;;;;0.40;0.40;;;;;;;8.91;80.00;103027.16;4980071;28;20465;-72
2021/05/30 04:49:33;;;;;;;0.30;0.30;;;;;;;8.86;79.86;103017.84;4982824;28;20042;-72
2021/05/30 04:51:58;;;;;;;0.30;0.30;;;;;;;8.91;80.06;103036.72;4982458;28;20053;-73
2021/05/30 04:54:24;;;;;;;0.40;0.40;;;;;;;8.66;79.87;103000.38;4950232;28;20048;-73
2021/05/30 04:56:49;;;;;;;0.70;0.50;;;;;;;8.99;80.56;103038.16;4984070;28;20137;-73
2021/05/30 04:59:15;;;;;;;0.50;0.40;;;;;;;9.02;80.49;103042.38;4982003;28;20053;-73
2021/05/30 05:01:40;;;;;;;0.30;0.30;;;;;;;9.00;79.93;103042.44;4976000;28;20094;-73
2021/05/30 05:04:07;;;;;;;0.60;0.40;;;;;;;8.92;80.58;103021.06;4966945;28;20069;-72
2021/05/30 05:06:32;;;;;;;0.40;0.40;;;;;;;9.01;80.18;103041.53;4981504;28;20083;-72
2021/05/30 05:08:58;;;;;;;0.40;0.40;;;;;;;9.04;80.55;103032.78;4960714;28;20034;-72
2021/05/30 05:11:23;;;;;;;0.50;0.43;;;;;;;9.09;80.70;103036.88;4983489;28;20038;-73
2021/05/30 05:13:49;;;;;;;0.45;0.32;;;;;;;9.16;80.72;103049.69;4966376;28;20311;-72
2021/05/30 05:16:14;;;;;;;0.40;0.40;;;;;;;9.25;80.11;103057.97;4982386;28;20038;-73
2021/05/30 05:18:40;;;;;;;0.30;0.30;;;;;;;9.32;80.40;103050.78;4981736;28;20042;-72
2021/05/30 05:21:06;;;;;;;0.40;0.40;;;;;;;9.28;80.82;103044.00;4981938;28;20096;-72
2021/05/30 05:23:32;;;;;;;0.40;0.40;;;;;;;9.37;80.17;103041.09;4982156;28;20125;-72
2021/05/30 05:26:03;;;;;;;0.30;0.30;;;;;;;9.38;80.25;103041.03;4982025;28;20053;-72
2021/05/30 05:28:29;;;;;;;0.20;0.20;;;;;;;9.41;80.62;103039.22;4992347;28;20392;-72
2021/05/30 05:30:55;;;;;;;0.40;0.38;;;;;;;9.39;80.18;103040.13;4980399;28;20362;-72
2021/05/30 05:33:22;;;;;;;0.40;0.30;;;;;;;9.49;79.69;103035.41;4983946;28;20121;-72
2021/05/30 05:35:47;;;;;;;0.50;0.30;;;;;;;9.52;79.04;103035.31;4981879;28;20049;-73
2021/05/30 05:38:13;;;;;;;0.45;0.40;;;;;;;9.58;80.03;103023.81;4965193;28;20034;-73
2021/05/30 05:40:39;;;;;;;0.38;0.30;;;;;;;9.62;79.35;103017.56;4981407;28;20046;-72
2021/05/30 05:43:05;;;;;;;0.55;0.43;;;;;;;9.67;79.69;103016.47;4982505;28;20022;-73
2021/05/30 05:45:31;;;;;;;0.50;0.32;;;;;;;9.81;79.95;103038.50;4983407;28;20042;-73
2021/05/30 05:47:57;;;;;;;0.35;0.35;;;;;;;9.65;78.86;103020.91;4980584;28;20485;-73
2021/05/30 05:50:23;;;;;;;0.40;0.40;;;;;;;9.60;78.97;103003.78;4982867;28;20499;-73
2021/05/30 05:52:51;;;;;;;0.43;0.38;;;;;;;9.75;78.74;103010.16;4981643;28;20038;-73
2021/05/30 05:55:18;;;;;;;0.30;0.30;;;;;;;9.69;78.69;103001.69;4980961;28;20054;-73
2021/05/30 05:57:47;;;;;;;0.40;0.40;;;;;;;9.85;78.71;103021.88;5006026;28;20038;-73
2021/05/30 06:00:15;;;;;;;0.40;0.30;;;;;;;9.96;77.92;103030.09;4997178;28;20197;-73
2021/05/30 06:02:42;;;;;;;0.30;0.30;;;;;;;9.87;77.87;103005.28;4957999;28;20101;-73
2021/05/30 06:05:08;;;;;;;0.40;0.40;;;;;;;10.01;78.51;103015.13;4972487;28;20841;-73
2021/05/30 06:07:36;;;;;;;0.40;0.40;;;;;;;9.83;77.90;102997.66;4982246;28;20849;-73
2021/05/30 06:10:03;;;;;;;0.50;0.30;;;;;;;9.92;78.03;103003.38;4989285;28;20057;-73
2021/05/30 06:12:29;;;;;;;0.40;0.35;;;;;;;10.06;78.35;103002.81;4981683;28;20038;-73
2021/05/30 06:14:54;;;;;;;0.30;0.30;;;;;;;10.24;78.35;103028.13;4971978;28;20085;-72
2021/05/30 06:17:20;;;;;;;0.30;0.30;;;;;;;10.28;77.31;103016.66;4983299;28;20546;-73
2021/05/30 06:19:45;;;;;;;0.95;0.20;;;;;;;10.20;76.75;103007.41;4965905;28;20050;-73
2021/05/30 06:22:12;;;;;;;0.30;0.30;;;;;;;10.20;76.86;102997.84;4998875;28;20124;-73
2021/05/30 06:24:40;;;;;;;0.38;0.38;;;;;;;9.99;76.36;102957.09;4965587;28;20133;-73
2021/05/30 06:27:06;;;;;;;0.30;0.30;;;;;;;10.26;76.16;103004.63;4950872;28;20038;-73
2021/05/30 06:29:32;;;;;;;0.30;0.30;;;;;;;10.33;76.93;103008.66;4981288;28;20038;-73
2021/05/30 06:31:57;;;;;;;0.30;0.30;;;;;;;10.17;76.88;102997.13;4980647;28;20449;-73
2021/05/30 06:34:23;;;;;;;0.32;0.30;;;;;;;10.26;76.97;103004.63;4981398;28;20031;-73
2021/05/30 06:36:50;;;;;;;0.40;0.40;;;;;;;10.46;77.06;103016.78;4982882;28;20500;-73
2021/05/30 06:39:16;;;;;;;0.50;0.40;;;;;;;10.58;76.70;103035.34;4984737;28;20042;-73
2021/05/30 06:41:43;;;;;;;0.30;0.30;;;;;;;10.57;76.56;103033.63;4983648;28;20062;-73
2021/05/30 06:44:08;;;;;;;0.30;0.30;;;;;;;10.55;76.86;103013.78;4985114;28;20145;-72
2021/05/30 06:46:36;;;;;;;0.30;0.30;;;;;;;10.64;76.96;103010.78;4984444;28;20036;-74
2021/05/30 06:49:04;;;;;;;0.30;0.30;;;;;;;10.70;75.66;103039.19;4967504;28;20022;-73
2021/05/30 06:51:31;;;;;;;0.40;0.40;;;;;;;10.47;75.82;102982.00;4968187;28;20184;-73
2021/05/30 06:53:58;;;;;;;0.30;0.30;;;;;;;10.79;76.70;103024.91;4985069;28;20026;-73
2021/05/30 06:56:24;;;;;;;0.40;0.38;;;;;;;10.82;76.05;103025.63;4984438;28;20041;-73
2021/05/30 06:58:50;;;;;;;0.22;0.22;;;;;;;10.76;76.09;103001.56;4979841;28;20038;-72
2021/05/30 07:01:18;;;;;;;0.25;0.25;;;;;;;11.02;76.38;103032.56;4968051;28;20065;-73
2021/05/30 07:03:44;;;;;;;0.30;0.30;;;;;;;11.08;76.83;103015.78;4966924;28;20050;-73
2021/05/30 07:06:10;;;;;;;0.30;0.30;;;;;;;11.21;76.68;103029.97;4989808;28;20069;-73
2021/05/30 07:08:35;;;;;;;0.35;0.30;;;;;;;11.22;74.24;103033.44;4985293;28;20483;-73
2021/05/30 07:11:01;;;;;;;0.30;0.30;;;;;;;11.24;75.56;103014.19;4985358;28;20045;-74
2021/05/30 07:13:26;;;;;;;0.30;0.20;;;;;;;11.26;75.05;103014.94;4986396;28;20133;-74
2021/05/30 07:15:53;;;;;;;0.28;0.28;;;;;;;11.34;75.57;103012.84;4958984;28;20411;-74
2021/05/30 07:18:22;;;;;;;0.20;0.20;;;;;;;11.55;74.43;103016.22;4987640;28;20038;-74
2021/05/30 07:20:49;;;;;;;0.30;0.30;;;;;;;11.75;73.63;103034.38;4984306;28;20034;-74
2021/05/30 07:23:15;;;;;;;0.40;0.40;;;;;;;11.71;74.21;103034.59;4988321;28;20053;-74
2021/05/30 07:25:41;;;;;;;0.30;0.30;;;;;;;11.69;73.79;103005.97;4984031;28;20329;-74
2021/05/30 07:28:07;;;;;;;0.40;0.40;;;;;;;11.88;74.10;103020.78;4987369;28;20121;-74
2021/05/30 07:30:33;;;;;;;0.25;0.25;;;;;;;11.91;72.86;103026.69;4951721;28;20437;-74
2021/05/30 07:33:01;;;;;;;0.40;0.40;;;;;;;11.75;74.14;103010.88;4986507;28;20061;-74
2021/05/30 07:35:28;;;;;;;0.32;0.30;;;;;;;11.79;73.97;103004.63;4986173;28;20045;-73
2021/05/30 07:37:54;;;;;;;0.28;0.28;;;;;;;11.86;72.82;103014.78;4987498;28;20484;-74
2021/05/30 07:40:23;;;;;;;0.40;0.40;;;;;;;11.89;73.92;103002.44;4984922;28;20042;-74
2021/05/30 07:42:49;;;;;;;0.30;0.30;;;;;;;12.10;72.43;103030.09;4992804;28;20034;-74
2021/05/30 07:45:16;;;;;;;0.40;0.30;;;;;;;12.12;72.46;103027.41;4983836;28;20053;-74
2021/05/30 07:47:42;;;;;;;0.30;0.30;;;;;;;11.91;72.48;102984.06;4984634;28;20144;-74
2021/05/30 07:50:09;;;;;;;0.35;0.35;;;;;;;12.07;72.69;103017.19;4982703;28;20464;-74
2021/05/30 07:52:35;;;;;;;0.30;0.30;;;;;;;12.23;73.33;103013.81;4983417;28;20042;-74
2021/05/30 07:55:01;;;;;;;0.30;0.30;;;;;;;12.36;71.67;103018.34;4966347;28;20410;-74
2021/05/30 07:57:26;;;;;;;0.40;0.40;;;;;;;12.43;72.60;103029.34;4981872;28;20046;-73
2021/05/30 07:59:52;;;;;;;0.20;0.20;;;;;;;12.45;71.57;103030.09;4982705;28;20045;-73
2021/05/30 08:02:18;;;;;;;0.32;0.30;;;;;;;12.46;73.56;103004.81;4984606;28;20034;-74
2021/05/30 08:04:44;;;;;;;0.40;0.30;;;;;;;12.78;72.00;103035.38;4982332;28;20038;-74
2021/05/30 08:07:10;;;;;;;0.30;0.30;;;;;;;12.75;71.09;103006.78;4984202;28;20058;-74
2021/05/30 08:09:35;;;;;;;0.40;0.40;;;;;;;12.99;69.73;103031.63;4966818;28;20069;-74
2021/05/30 08:12:01;;;;;;;0.40;0.40;;;;;;;12.83;71.86;103015.06;4983203;28;20640;-73
2021/05/30 08:14:28;;;;;;;0.40;0.38;;;;;;;13.02;71.20;103018.38;4984166;28;20038;-74
2021/05/30 08:16:53;;;;;;;0.25;0.25;;;;;;;13.14;69.85;103029.97;4982928;28;20391;-73
2021/05/30 08:19:18;;;;;;;0.40;0.40;;;;;;;13.01;70.79;103006.22;4985690;28;20038;-74
2021/05/30 08:21:44;;;;;;;0.50;0.40;;;;;;;13.21;69.90;103020.03;4979486;28;20117;-72
2021/05/30 08:24:10;;;;;;;0.30;0.30;;;;;;;12.96;70.09;102976.88;4996992;28;20049;-71
2021/05/30 08:26:37;;;;;;;0.30;0.30;;;;;;;13.17;69.72;102984.47;4981546;28;20539;-73
2021/05/30 08:29:03;;;;;;;0.40;0.40;;;;;;;13.36;70.53;103018.38;4981761;28;20125;-74
2021/05/30 08:31:29;;;;;;;0.30;0.30;;;;;;;13.51;70.14;103014.91;4966375;28;20057;-74
2021/05/30 08:33:54;;;;;;;0.43;0.40;;;;;;;13.52;69.21;102998.28;4983565;28;20058;-74
2021/05/30 08:36:20;;;;;;;0.35;0.30;;;;;;;13.78;69.42;103010.72;4980363;28;20034;-74
2021/05/30 08:38:45;;;;;;;0.20;0.20;;;;;;;13.74;68.65;102988.28;4984670;28;20050;-73
2021/05/30 08:41:11;;;;;;;0.20;0.20;;;;;;;13.59;68.33;102953.31;4984717;28;20074;-74
2021/05/30 08:43:37;;;;;;;0.30;0.30;;;;;;;14.05;68.73;103002.22;4983427;28;20046;-74
2021/05/30 08:46:03;;;;;;;0.43;0.43;;;;;;;13.46;67.37;102927.91;4986906;28;20070;-74
2021/05/30 08:48:28;;;;;;;0.30;0.30;;;;;;;13.74;67.23;102962.09;4984363;28;20029;-74
2021/05/30 08:51:06;;;;;;;0.40;0.40;;;;;;;14.08;67.70;103008.13;4967666;28;20348;-74
2021/05/30 08:53:34;;;;;;;0.30;0.30;;;;;;;14.24;67.18;103004.63;4983564;28;20073;-74
2021/05/30 08:56:00;;;;;;;0.47;0.30;;;;;;;14.25;67.20;103007.16;4982128;28;20039;-74
2021/05/30 08:58:34;;;;;;;0.30;0.30;;;;;;;14.38;67.95;103018.59;4983124;28;20041;-74
2021/05/30 09:01:41;;;;;;;0.28;0.28;;;;;;;14.64;68.34;103013.59;4979107;28;20463;-73
2021/05/30 09:04:07;;;;;;;0.20;0.20;;;;;;;14.64;67.02;102996.09;4951694;28;20034;-74
2021/05/30 09:06:34;;;;;;;0.20;0.20;;;;;;;14.84;65.46;103012.38;4980997;28;20782;-74
2021/05/30 09:09:01;;;;;;;0.30;0.30;;;;;;;14.92;67.23;103016.25;4975382;28;20084;-74
2021/05/30 09:11:50;;;;;;;0.38;0.30;;;;;;;14.93;65.30;102999.56;4966332;28;20049;-73
2021/05/30 09:14:24;;;;;;;0.40;0.40;;;;;;;14.82;64.42;102986.25;4979365;28;20038;-74
2021/05/30 09:17:16;;;;;;;0.20;0.20;;;;;;;14.88;65.47;103012.09;4980567;28;20383;-73
2021/05/30 09:19:58;;;;;;;0.30;0.30;;;;;;;15.03;64.75;103000.66;4996630;28;20038;-74
2021/05/30 09:22:40;;;;;;;0.35;0.30;;;;;;;15.02;66.71;102979.78;4967834;28;20413;-74
2021/05/30 09:25:11;;;;;;;0.30;0.30;;;;;;;15.26;65.94;102999.25;4982505;28;20552;-74
2021/05/30 09:27:43;;;;;;;0.38;0.38;;;;;;;15.31;62.82;102988.44;4997505;28;20389;-73
2021/05/30 09:30:09;;;;;;;0.30;0.30;;;;;;;15.18;64.56;102992.78;4981164;28;20097;-72
2021/05/30 09:33:02;;;;;;;0.20;0.20;;;;;;;15.38;65.62;102981.84;4981451;28;20030;-74
2021/05/30 09:35:37;;;;;;;0.30;0.30;;;;;;;15.43;64.82;102980.59;4982955;28;20073;-74
2021/05/30 09:38:09;;;;;;;0.30;0.30;;;;;;;15.64;64.36;102986.31;4981913;28;20049;-74
2021/05/30 09:40:44;;;;;;;0.30;0.30;;;;;;;15.84;64.52;102986.78;4994878;28;20232;-74
2021/05/30 09:43:12;;;;;;;0.30;0.30;;;;;;;15.90;62.49;102981.97;4997021;28;20041;-74
2021/05/30 09:45:39;;;;;;;0.30;0.20;;;;;;;16.04;62.12;102994.19;4983159;28;20030;-73
2021/05/30 09:48:15;;;;;;;0.20;0.20;;;;;;;16.14;62.95;102994.41;4980912;28;20178;-71
2021/05/30 09:50:40;;;;;;;0.20;0.20;;;;;;;15.91;62.22;102941.59;4982325;28;20038;-72
2021/05/30 09:53:06;;;;;;;0.30;0.30;;;;;;;16.23;62.72;102986.75;4966857;28;20077;-72
2021/05/30 09:55:32;;;;;;;0.30;0.30;;;;;;;16.39;62.10;102975.19;4980413;28;20050;-72
2021/05/30 09:58:15;;;;;;;0.35;0.35;;;;;;;16.53;61.83;102993.50;4981682;28;20047;-73
2021/05/30 10:00:43;;;;;;;0.30;0.30;;;;;;;16.52;60.89;102965.53;4981445;28;20057;-73
2021/05/30 10:03:09;;;;;;;0.38;0.30;;;;;;;16.67;60.48;102971.50;4982175;28;20036;-73
2021/05/30 10:05:36;;;;;;;0.20;0.20;;;;;;;16.88;61.53;102984.03;4978355;28;20044;-73
2021/05/30 10:08:03;;;;;;;0.30;0.30;;;;;;;16.70;61.70;102953.75;4965432;28;20451;-73
2021/05/30 10:10:29;;;;;;;0.30;0.30;;;;;;;17.04;60.94;102989.03;4983241;28;20049;-73
2021/05/30 10:12:55;;;;;;;0.30;0.30;;;;;;;16.93;60.58;102960.00;5001575;28;20052;-73
2021/05/30 10:15:22;;;;;;;0.30;0.30;;;;;;;16.81;60.55;102955.59;4970916;28;20030;-73
2021/05/30 10:17:50;;;;;;;0.20;0.20;;;;;;;17.11;61.48;102977.13;4985675;28;20042;-73
2021/05/30 10:20:20;;;;;;;0.40;0.30;;;;;;;17.21;58.78;102961.50;4986282;28;20114;-73
2021/05/30 10:22:51;;;;;;;0.30;0.30;;;;;;;17.41;59.93;102975.84;4992132;28;20061;-73
2021/05/30 10:25:26;;;;;;;0.20;0.20;;;;;;;17.48;60.27;102971.84;4988555;28;20046;-72
2021/05/30 10:28:11;;;;;;;0.20;0.20;;;;;;;17.84;60.14;102992.03;4986426;28;20046;-73
2021/05/30 10:30:37;;;;;;;;;;;;;;;17.84;57.37;102986.75;4985023;28;20066;-72
2021/05/30 10:33:14;;;;;;;0.20;0.20;;;;;;;17.96;57.95;102988.47;4985070;28;20318;-73
2021/05/30 10:35:45;;;;;;;0.28;0.28;;;;;;;18.02;60.60;102989.81;4986286;28;20038;-73
2021/05/30 10:38:11;;;;;;;0.30;0.20;;;;;;;18.04;57.80;102951.81;4984737;28;20062;-73
2021/05/30 10:40:40;;;;;;;0.20;0.20;;;;;;;18.37;56.76;102968.66;4986700;28;20084;-73
2021/05/30 10:43:08;;;;;;;0.20;0.20;;;;;;;18.35;56.94;102983.78;5001774;28;20042;-73
2021/05/30 10:46:00;;;;;;;0.20;0.20;;;;;;;18.42;57.10;102980.53;4997579;28;20035;-72
2021/05/30 10:48:26;;;;;;;0.20;0.20;;;;;;;18.17;56.46;102958.81;4997502;28;20042;-72
2021/05/30 10:51:02;;;;;;;0.30;0.30;;;;;;;18.57;58.73;102989.06;4986032;28;20042;-73
2021/05/30 10:53:43;;;;;;;0.20;0.20;;;;;;;18.70;58.51;102979.28;4968643;28;20038;-73
2021/05/30 10:56:26;;;;;;;0.20;0.20;;;;;;;18.66;56.08;102980.44;5001104;28;21075;-72
2021/05/30 10:59:04;;;;;;;0.20;0.20;;;;;;;18.64;57.57;102918.19;4968538;28;20042;-75
2021/05/30 11:01:33;;;;;;;0.25;0.25;;;;;;;19.12;57.13;102949.56;4969172;28;20046;-75
2021/05/30 11:04:24;;;;;;;0.20;0.20;;;;;;;19.30;55.17;102974.50;4986685;28;20481;-75
2021/05/30 11:06:54;;;;;;;0.40;0.20;;;;;;;18.74;54.85;102874.28;4963718;28;20042;-75
2021/05/30 11:09:24;;;;;;;0.20;0.20;;;;;;;19.05;53.78;102911.44;4985797;28;20041;-75
2021/05/30 11:12:18;;;;;;;0.20;0.20;;;;;;;19.33;55.29;102935.44;4985170;28;20030;-70
2021/05/30 11:15:08;;;;;;;0.30;0.30;;;;;;;19.80;54.41;102959.78;4967956;28;20485;-72
2021/05/30 11:17:42;;;;;;;0.20;0.20;;;;;;;19.51;56.57;102889.97;4982314;28;20096;-72
2021/05/30 11:20:13;;;;;;;0.20;0.20;;;;;;;19.90;53.84;102909.59;4983438;28;20955;-72
2021/05/30 11:23:01;;;;;;;0.30;0.30;;;;;;;20.11;52.84;102957.22;4985342;28;20291;-72
2021/05/30 11:25:51;;;;;;;0.20;0.20;;;;;;;20.02;52.36;102921.81;4998557;28;20044;-72
2021/05/30 11:28:27;;;;;;;0.20;0.20;;;;;;;20.13;51.39;102947.34;4986491;28;20026;-72
2021/05/30 11:31:06;;;;;;;0.40;0.20;;;;;;;20.03;53.87;102920.00;4984149;28;20034;-73
2021/05/30 11:33:42;;;;;;;0.20;0.20;;;;;;;20.35;54.64;102938.41;4986888;28;20044;-73
2021/05/30 11:36:12;;;;;;;0.20;0.20;;;;;;;20.30;50.72;102940.63;4985836;28;20070;-73